Villa Atuel, Argentina
Current Conditions -  °F | °C
As of 6:00 PM on Saturday 25 Oct 2014 (Local Time) from SAME Reporting Station
Few Clouds Few Clouds  
Wind Chill: 91°   Ceiling: Unl
Heat Index: 91°   Visibility: 6mi
Dew Point: 59°   Wind: 5mph
Humidity: 34%   Direction: 360°N
Pressure: 29.71"   Gusts: NA
Location:  34.83°S, 67.92°W
Report Text: SAME 252100Z 36004KT 9999 FEW045 33/15 Q1006
Loading
Personal Weather Stations






























Interactive Weather Map New forecast layout! Learn more

10-Day Weather Forecast

Advertisements
Track Severe Weather on mobile